Time;durP1;ratioP1;P1;durP2;ratioP2;P2;SDS_P1;SDS_P2;PMS_P1;PMS_P2;Temp;Humidity;BMP_temperature;BMP_pressure;BME280_temperature;BME280_humidity;BME280_pressure;Samples;Min_cycle;Max_cycle;Signal;HPM_P1;HPM_P2
2022/04/05 00:01:11;;;;;;;20.80;8.27;;;;;;;-146.64;100.00;118402.03;4998056;28;20026;-85
2022/04/05 00:03:36;;;;;;;18.48;8.45;;;;;;;-146.64;100.00;118402.03;5015064;28;20034;-83
2022/04/05 00:06:02;;;;;;;15.03;8.17;;;;;;;-146.64;100.00;118402.03;4997770;28;20026;-83
2022/04/05 00:08:27;;;;;;;24.20;8.27;;;;;;;-146.64;100.00;118402.03;5029925;28;20093;-82
2022/04/05 00:10:52;;;;;;;21.67;8.97;;;;;;;-146.64;100.00;118402.03;4999375;28;20030;-83
2022/04/05 00:13:18;;;;;;;22.63;9.35;;;;;;;-146.64;100.00;118402.03;4995757;28;20033;-83
2022/04/05 00:15:43;;;;;;;28.20;8.90;;;;;;;-146.64;100.00;118402.03;4999585;28;20026;-84
2022/04/05 00:18:09;;;;;;;18.42;8.20;;;;;;;-146.64;100.00;118402.03;5015718;28;20022;-84
2022/04/05 00:20:34;;;;;;;35.28;10.07;;;;;;;-146.64;100.00;118402.03;5028430;28;20044;-84
2022/04/05 00:22:59;;;;;;;23.10;8.73;;;;;;;-146.64;100.00;118402.03;4995945;28;20049;-84
2022/04/05 00:25:25;;;;;;;26.87;8.53;;;;;;;-146.64;100.00;118402.03;4998403;28;20034;-84
2022/04/05 00:27:50;;;;;;;27.63;10.13;;;;;;;-146.64;100.00;118402.03;4995990;28;20125;-84
2022/04/05 00:30:15;;;;;;;24.33;9.20;;;;;;;-146.64;100.00;118402.03;4998175;28;20040;-84
2022/04/05 00:32:41;;;;;;;23.13;9.00;;;;;;;-146.64;100.00;118402.03;4999146;28;20555;-84
2022/04/05 00:35:08;;;;;;;24.98;9.55;;;;;;;-146.64;100.00;118402.03;4994271;28;20042;-83
2022/04/05 00:37:33;;;;;;;20.08;8.45;;;;;;;-146.64;100.00;118402.03;5008727;28;20072;-84
2022/04/05 00:39:59;;;;;;;24.63;8.70;;;;;;;-146.64;100.00;118402.03;4997747;28;20030;-84
2022/04/05 00:42:24;;;;;;;23.63;9.40;;;;;;;-146.64;100.00;118402.03;4996311;28;20030;-84
2022/04/05 00:44:49;;;;;;;28.60;9.47;;;;;;;-146.64;100.00;118402.03;5017968;28;20665;-84
2022/04/05 00:47:20;;;;;;;20.23;9.57;;;;;;;-146.64;100.00;118402.03;5002292;28;20030;-84
2022/04/05 00:49:47;;;;;;;19.83;8.95;;;;;;;-146.64;100.00;118402.03;5033327;28;20465;-84
2022/04/05 00:52:13;;;;;;;24.23;9.45;;;;;;;-146.64;100.00;118402.03;5000239;28;20026;-84
2022/04/05 00:54:40;;;;;;;20.08;9.30;;;;;;;-146.64;100.00;118402.03;5013804;28;20124;-85
2022/04/05 00:57:10;;;;;;;20.13;9.07;;;;;;;-146.64;100.00;118402.03;5006348;28;20022;-84
2022/04/05 00:59:35;;;;;;;17.55;9.48;;;;;;;-146.64;100.00;118402.03;4999467;28;20036;-84
2022/04/05 01:02:01;;;;;;;18.30;10.80;;;;;;;-146.64;100.00;118402.03;5030600;28;20034;-84
2022/04/05 01:04:28;;;;;;;16.88;9.80;;;;;;;-146.64;100.00;118402.03;5011068;28;20036;-84
2022/04/05 01:06:54;;;;;;;17.80;9.23;;;;;;;-146.64;100.00;118402.03;4998212;28;20026;-84
2022/04/05 01:09:21;;;;;;;30.30;10.57;;;;;;;-146.64;100.00;118402.03;5001876;28;20921;-84
2022/04/05 01:11:46;;;;;;;;;;;;;;;-146.64;100.00;118402.03;5002817;28;20421;-84
2022/04/05 01:14:12;;;;;;;20.75;9.82;;;;;;;-146.64;100.00;118402.03;4999877;28;19940;-85
2022/04/05 01:16:38;;;;;;;25.03;9.00;;;;;;;-146.64;100.00;118402.03;5017621;28;20040;-84
2022/04/05 01:19:05;;;;;;;23.92;10.57;;;;;;;-146.64;100.00;118402.03;5000458;28;20057;-84
2022/04/05 01:21:31;;;;;;;30.90;10.95;;;;;;;-146.64;100.00;118402.03;4999294;28;20033;-84
2022/04/05 01:24:13;;;;;;;17.88;9.80;;;;;;;-146.64;100.00;118402.03;5012372;28;20090;-83
2022/04/05 01:26:50;;;;;;;20.42;10.40;;;;;;;-146.64;100.00;118402.03;5000270;28;20064;-84
2022/04/05 01:29:17;;;;;;;19.98;10.70;;;;;;;-146.64;100.00;118402.03;4998959;28;20021;-83
2022/04/05 01:31:46;;;;;;;;;;;;;;;-146.64;100.00;118402.03;5000715;28;20037;-83
2022/04/05 01:34:13;;;;;;;19.75;10.77;;;;;;;-146.64;100.00;118402.03;4999316;28;19983;-84
2022/04/05 01:36:44;;;;;;;25.70;11.05;;;;;;;-146.64;100.00;118402.03;5011912;28;20045;-84
2022/04/05 01:39:15;;;;;;;19.52;10.82;;;;;;;-146.64;100.00;118402.03;5015707;28;20050;-84
2022/04/05 01:41:40;;;;;;;20.48;10.27;;;;;;;-146.64;100.00;118402.03;5012460;28;20044;-83
2022/04/05 01:44:06;;;;;;;25.47;11.33;;;;;;;-146.64;100.00;118402.03;5014469;28;20034;-83
2022/04/05 01:46:32;;;;;;;25.10;12.18;;;;;;;-146.64;100.00;118402.03;5010799;28;20028;-83
2022/04/05 01:48:58;;;;;;;21.45;12.15;;;;;;;-146.64;100.00;118402.03;5014467;28;20037;-83
2022/04/05 01:51:23;;;;;;;23.20;12.93;;;;;;;-146.64;100.00;118402.03;5015797;28;20030;-83
2022/04/05 01:53:48;;;;;;;21.83;14.07;;;;;;;-146.64;100.00;118402.03;5011340;28;20033;-83
2022/04/05 01:56:14;;;;;;;32.30;13.18;;;;;;;-146.64;100.00;118402.03;5000161;28;20033;-83
2022/04/05 01:58:39;;;;;;;32.17;13.43;;;;;;;-146.64;100.00;118402.03;5017503;28;20044;-84
2022/04/05 02:01:04;;;;;;;18.53;14.00;;;;;;;-146.64;100.00;118402.03;4996893;28;20022;-84
2022/04/05 02:03:30;;;;;;;29.85;13.75;;;;;;;-146.64;100.00;118402.03;5014817;28;20718;-83
2022/04/05 02:05:57;;;;;;;27.70;13.85;;;;;;;-146.64;100.00;118402.03;4999411;28;20033;-83
2022/04/05 02:08:24;;;;;;;28.67;13.48;;;;;;;-146.64;100.00;118402.03;5007207;28;20030;-83
2022/04/05 02:10:50;;;;;;;22.40;13.90;;;;;;;-146.64;100.00;118402.03;4999713;28;20030;-84
2022/04/05 02:13:15;;;;;;;27.43;13.23;;;;;;;-146.64;100.00;118402.03;4999952;28;20092;-83
2022/04/05 02:15:40;;;;;;;35.00;13.10;;;;;;;-146.64;100.00;118402.03;4997391;28;20401;-83
2022/04/05 02:18:06;;;;;;;23.27;13.52;;;;;;;-146.64;100.00;118402.03;4998009;28;20112;-83
2022/04/05 02:20:32;;;;;;;27.33;13.07;;;;;;;-146.64;100.00;118402.03;5007504;28;20038;-84
2022/04/05 02:22:58;;;;;;;26.10;12.37;;;;;;;-146.64;100.00;118402.03;5009764;28;20064;-83
2022/04/05 02:25:24;;;;;;;29.90;11.43;;;;;;;-146.64;100.00;118402.03;5011339;28;20053;-82
2022/04/05 02:27:49;;;;;;;23.02;11.45;;;;;;;-146.64;100.00;118402.03;5013637;28;20047;-83
2022/04/05 02:30:14;;;;;;;25.15;12.45;;;;;;;-146.64;100.00;118402.03;4995862;28;20080;-84
2022/04/05 02:32:40;;;;;;;22.73;11.48;;;;;;;-146.64;100.00;118402.03;4997025;28;20436;-83
2022/04/05 02:35:08;;;;;;;24.02;11.88;;;;;;;-146.64;100.00;118402.03;5001356;28;20029;-83
2022/04/05 02:37:33;;;;;;;23.17;11.85;;;;;;;-146.64;100.00;118402.03;5011018;28;20026;-84
2022/04/05 02:39:58;;;;;;;31.40;12.13;;;;;;;-146.64;100.00;118402.03;5014793;28;20116;-84
2022/04/05 02:42:24;;;;;;;24.20;11.90;;;;;;;-146.64;100.00;118402.03;4993225;28;20087;-83
2022/04/05 02:44:49;;;;;;;31.17;12.43;;;;;;;-146.64;100.00;118402.03;5014553;28;20143;-83
2022/04/05 02:47:15;;;;;;;28.83;12.40;;;;;;;-146.64;100.00;118402.03;4997635;28;20461;-83
2022/04/05 02:49:40;;;;;;;25.30;11.97;;;;;;;-146.64;100.00;118402.03;5026108;28;20026;-83
2022/04/05 02:52:06;;;;;;;32.60;13.63;;;;;;;-146.64;100.00;118402.03;4999313;28;20025;-84
2022/04/05 02:54:31;;;;;;;26.80;12.23;;;;;;;-146.64;100.00;118402.03;5011536;28;20030;-84
2022/04/05 02:56:57;;;;;;;28.58;12.90;;;;;;;-146.64;100.00;118402.03;5014333;28;20030;-84
2022/04/05 02:59:23;;;;;;;29.67;12.97;;;;;;;-146.64;100.00;118402.03;5013941;28;20032;-83
2022/04/05 03:01:49;;;;;;;30.90;13.15;;;;;;;-146.64;100.00;118402.03;4996536;28;20026;-83
2022/04/05 03:04:15;;;;;;;32.47;13.07;;;;;;;-146.64;100.00;118402.03;4996060;28;20046;-83
2022/04/05 03:06:40;;;;;;;31.70;11.98;;;;;;;-146.64;100.00;118402.03;5013469;28;20026;-83
2022/04/05 03:09:07;;;;;;;32.35;12.90;;;;;;;-146.64;100.00;118402.03;5014907;28;20493;-83
2022/04/05 03:11:32;;;;;;;;;;;;;;;-146.64;100.00;118402.03;4993890;28;20046;-83
2022/04/05 03:13:58;;;;;;;35.78;12.77;;;;;;;-146.64;100.00;118402.03;5014094;28;20378;-83
2022/04/05 03:16:24;;;;;;;28.17;12.43;;;;;;;-146.64;100.00;118402.03;5024562;28;20086;-83
2022/04/05 03:18:50;;;;;;;35.50;13.27;;;;;;;-146.64;100.00;118402.03;4994316;28;20034;-83
2022/04/05 03:21:16;;;;;;;32.00;11.73;;;;;;;-146.64;100.00;118402.03;5010538;28;20040;-84
2022/04/05 03:23:41;;;;;;;26.50;11.45;;;;;;;-146.64;100.00;118402.03;5008669;28;20089;-84
2022/04/05 03:26:06;;;;;;;29.13;10.95;;;;;;;-146.64;100.00;118402.03;4995955;28;20470;-84
2022/04/05 03:28:32;;;;;;;33.17;13.03;;;;;;;-146.64;100.00;118402.03;4997644;28;20038;-84
2022/04/05 03:30:57;;;;;;;26.15;11.13;;;;;;;-146.64;100.00;118402.03;5013387;28;20125;-83
2022/04/05 03:33:22;;;;;;;31.42;11.98;;;;;;;-146.64;100.00;118402.03;4998154;28;20497;-83
2022/04/05 03:35:48;;;;;;;27.53;10.87;;;;;;;-146.64;100.00;118402.03;5008572;28;20089;-84
2022/04/05 03:38:13;;;;;;;26.97;11.33;;;;;;;-146.64;100.00;118402.03;4998540;28;20026;-84
2022/04/05 03:40:38;;;;;;;32.28;12.35;;;;;;;-146.64;100.00;118402.03;4996984;28;20026;-85
2022/04/05 03:43:05;;;;;;;26.60;11.60;;;;;;;-146.64;100.00;118402.03;5010762;28;20037;-84
2022/04/05 03:45:30;;;;;;;27.20;11.95;;;;;;;-146.64;100.00;118402.03;5010997;28;20050;-84
2022/04/05 03:47:56;;;;;;;27.53;11.33;;;;;;;-146.64;100.00;118402.03;4990104;28;20086;-84
2022/04/05 03:50:22;;;;;;;30.23;11.77;;;;;;;-146.64;100.00;118402.03;5024702;28;20033;-84
2022/04/05 03:52:47;;;;;;;28.30;11.33;;;;;;;-146.64;100.00;118402.03;4998829;28;20036;-84
2022/04/05 03:55:12;;;;;;;29.90;10.93;;;;;;;-146.64;100.00;118402.03;5005124;28;20026;-84
2022/04/05 03:57:38;;;;;;;19.57;10.27;;;;;;;-146.64;100.00;118402.03;5012634;28;20172;-85
2022/04/05 04:00:03;;;;;;;26.00;11.45;;;;;;;-146.64;100.00;118402.03;4996809;28;20034;-84
2022/04/05 04:02:34;;;;;;;20.03;10.97;;;;;;;-146.64;100.00;118402.03;5007894;28;20113;-84
2022/04/05 04:04:59;;;;;;;21.98;11.50;;;;;;;-146.64;100.00;118402.03;5015334;28;20029;-84
2022/04/05 04:07:25;;;;;;;25.07;10.47;;;;;;;-146.64;100.00;118402.03;5016431;28;20026;-84
2022/04/05 04:09:51;;;;;;;25.63;11.60;;;;;;;-146.64;100.00;118402.03;5011496;28;20026;-84
2022/04/05 04:12:16;;;;;;;21.73;10.75;;;;;;;-146.64;100.00;118402.03;5026862;28;20030;-84
2022/04/05 04:14:42;;;;;;;26.37;10.20;;;;;;;-146.64;100.00;118402.03;5011338;28;20029;-85
2022/04/05 04:17:07;;;;;;;29.70;12.20;;;;;;;-146.64;100.00;118402.03;4996587;28;20019;-85
2022/04/05 04:19:32;;;;;;;24.17;10.35;;;;;;;-146.64;100.00;118402.03;5011355;28;20060;-85
2022/04/05 04:21:58;;;;;;;24.40;10.60;;;;;;;-146.64;100.00;118402.03;5011143;28;20033;-85
2022/04/05 04:24:23;;;;;;;30.73;10.50;;;;;;;-146.64;100.00;118402.03;5014162;28;20366;-84
2022/04/05 04:26:48;;;;;;;20.83;9.37;;;;;;;-146.64;100.00;118402.03;4993196;28;20417;-84
2022/04/05 04:29:14;;;;;;;22.13;10.17;;;;;;;-146.64;100.00;118402.03;5008189;28;20033;-84
2022/04/05 04:31:40;;;;;;;29.15;9.95;;;;;;;-146.64;100.00;118402.03;5005996;28;20045;-84
2022/04/05 04:34:06;;;;;;;23.77;10.15;;;;;;;-146.64;100.00;118402.03;5011102;28;20049;-84
2022/04/05 04:36:31;;;;;;;16.50;9.93;;;;;;;-146.64;100.00;118402.03;4993341;28;20094;-83
2022/04/05 04:38:57;;;;;;;20.47;9.77;;;;;;;-146.64;100.00;118402.03;4992117;28;20022;-84
2022/04/05 04:41:22;;;;;;;22.30;10.75;;;;;;;-146.64;100.00;118402.03;5024764;28;20450;-84
2022/04/05 04:43:49;;;;;;;23.02;9.25;;;;;;;-146.64;100.00;118402.03;5014383;28;20749;-84
2022/04/05 04:46:14;;;;;;;29.83;9.97;;;;;;;-146.64;100.00;118402.03;4999758;28;20026;-84
2022/04/05 04:48:41;;;;;;;22.40;9.90;;;;;;;-146.64;100.00;118402.03;4996676;28;20040;-84
2022/04/05 04:51:06;;;;;;;24.35;9.88;;;;;;;-146.64;100.00;118402.03;4998864;28;20022;-85
2022/04/05 04:53:31;;;;;;;21.03;10.23;;;;;;;-146.64;100.00;118402.03;4996341;28;20057;-85
2022/04/05 04:55:57;;;;;;;18.77;9.88;;;;;;;-146.64;100.00;118402.03;4997972;28;20029;-85
2022/04/05 04:58:22;;;;;;;16.70;10.38;;;;;;;-146.64;100.00;118402.03;5011368;28;20072;-84
2022/04/05 05:00:48;;;;;;;25.13;9.65;;;;;;;-146.64;100.00;118402.03;5006753;28;20049;-85
2022/04/05 05:03:18;;;;;;;16.23;9.13;;;;;;;-146.64;100.00;118402.03;4997283;28;20076;-85
2022/04/05 05:05:44;;;;;;;19.58;8.55;;;;;;;-146.64;100.00;118402.03;5009957;28;20026;-85
2022/04/05 05:08:09;;;;;;;19.87;8.73;;;;;;;-146.64;100.00;118402.03;5014949;28;20173;-85
2022/04/05 05:10:34;;;;;;;20.45;8.73;;;;;;;-146.64;100.00;118402.03;5000437;28;20087;-84
2022/04/05 05:13:00;;;;;;;21.52;9.90;;;;;;;-146.64;100.00;118402.03;5014467;28;20110;-84
2022/04/05 05:15:25;;;;;;;12.70;8.40;;;;;;;-146.64;100.00;118402.03;5015553;28;20014;-84
2022/04/05 05:17:51;;;;;;;25.23;9.30;;;;;;;-146.64;100.00;118402.03;4994901;28;20022;-85
2022/04/05 05:20:16;;;;;;;15.27;8.95;;;;;;;-146.64;100.00;118402.03;5008885;28;20026;-84
2022/04/05 05:22:42;;;;;;;13.57;8.07;;;;;;;-146.64;100.00;118402.03;5011472;28;20069;-84
2022/04/05 05:25:09;;;;;;;21.40;8.52;;;;;;;-146.64;100.00;118402.03;5004550;28;20026;-85
2022/04/05 05:27:35;;;;;;;23.67;8.88;;;;;;;-146.64;100.00;118402.03;5009400;28;20054;-85
2022/04/05 05:30:00;;;;;;;24.30;9.13;;;;;;;-146.64;100.00;118402.03;5011671;28;20049;-84
2022/04/05 05:32:26;;;;;;;22.40;8.47;;;;;;;-146.64;100.00;118402.03;5019507;28;20040;-85
2022/04/05 05:34:51;;;;;;;19.70;8.93;;;;;;;-146.64;100.00;118402.03;5023523;28;20117;-85
2022/04/05 05:37:16;;;;;;;16.63;8.10;;;;;;;-146.64;100.00;118402.03;5026959;28;20492;-84
2022/04/05 05:39:42;;;;;;;26.63;9.55;;;;;;;-146.64;100.00;118402.03;5013684;28;20021;-85
2022/04/05 05:42:08;;;;;;;17.97;8.60;;;;;;;-146.64;100.00;118402.03;5010751;28;20029;-85
2022/04/05 05:44:34;;;;;;;13.45;8.30;;;;;;;-146.64;100.00;118402.03;5011679;28;20044;-85
2022/04/05 05:47:00;;;;;;;17.65;8.93;;;;;;;-146.64;100.00;118402.03;4994291;28;20108;-85
2022/04/05 05:49:25;;;;;;;22.40;8.30;;;;;;;-146.64;100.00;118402.03;4998994;28;20111;-85
2022/04/05 05:51:50;;;;;;;28.80;8.57;;;;;;;-146.64;100.00;118402.03;5012536;28;20022;-84
2022/04/05 05:54:16;;;;;;;14.43;8.77;;;;;;;-146.64;100.00;118402.03;4996241;28;20049;-85
2022/04/05 05:56:42;;;;;;;20.13;8.40;;;;;;;-146.64;100.00;118402.03;5013738;28;20094;-85
2022/04/05 05:59:08;;;;;;;18.87;10.63;;;;;;;-146.64;100.00;118402.03;5010961;28;20362;-85
2022/04/05 06:01:33;;;;;;;17.67;8.52;;;;;;;-146.64;100.00;118402.03;4996335;28;20056;-85
2022/04/05 06:03:58;;;;;;;19.13;7.53;;;;;;;-146.64;100.00;118402.03;5012474;28;20065;-84
2022/04/05 06:06:24;;;;;;;21.15;8.25;;;;;;;-146.64;100.00;118402.03;5010039;28;20037;-85
2022/04/05 06:08:49;;;;;;;18.53;7.60;;;;;;;-146.64;100.00;118402.03;4994638;28;20049;-85
2022/04/05 06:11:14;;;;;;;14.90;7.13;;;;;;;-146.64;100.00;118402.03;5024815;28;20068;-84
2022/04/05 06:13:40;;;;;;;13.23;7.63;;;;;;;-146.64;100.00;118402.03;5013262;28;20033;-85
2022/04/05 06:16:08;;;;;;;19.67;6.85;;;;;;;-146.64;100.00;118402.03;5015016;28;20102;-84
2022/04/05 06:18:34;;;;;;;16.15;6.75;;;;;;;-146.64;100.00;118402.03;4997089;28;20018;-85
2022/04/05 06:20:59;;;;;;;17.10;7.63;;;;;;;-146.64;100.00;118402.03;5011483;28;20021;-85
2022/04/05 06:23:25;;;;;;;18.02;7.57;;;;;;;-146.64;100.00;118402.03;4995303;28;20575;-85
2022/04/05 06:25:50;;;;;;;21.70;6.65;;;;;;;-146.64;100.00;118402.03;5027083;28;20026;-85
2022/04/05 06:28:18;;;;;;;15.27;6.83;;;;;;;-146.64;100.00;118402.03;5011712;28;20057;-85
2022/04/05 06:30:43;;;;;;;13.20;6.68;;;;;;;-146.64;100.00;118402.03;5008794;28;21846;-85
2022/04/05 06:33:09;;;;;;;14.53;6.90;;;;;;;-146.64;100.00;118402.03;5008671;28;20292;-85
2022/04/05 06:35:42;;;;;;;21.92;8.57;;;;;;;-146.64;100.00;118402.03;5010282;28;20026;-85
2022/04/05 06:38:08;;;;;;;15.30;6.40;;;;;;;-146.64;100.00;118402.03;5010679;28;20029;-84
2022/04/05 06:40:34;;;;;;;13.67;7.07;;;;;;;-146.64;100.00;118402.03;4991787;28;20388;-85
2022/04/05 06:42:59;;;;;;;14.48;6.40;;;;;;;-146.64;100.00;118402.03;5011303;28;20030;-85
2022/04/05 06:45:25;;;;;;;15.07;5.70;;;;;;;-146.64;100.00;118402.03;4994870;28;20025;-85
2022/04/05 06:47:51;;;;;;;23.97;6.10;;;;;;;-146.64;100.00;118402.03;4990660;28;20396;-85
2022/04/05 06:50:20;;;;;;;11.73;5.93;;;;;;;-146.64;100.00;118402.03;5004038;28;20392;-85
2022/04/05 06:52:46;;;;;;;14.07;6.72;;;;;;;-146.64;100.00;118402.03;5003703;28;20037;-85
2022/04/05 06:55:11;;;;;;;15.47;6.50;;;;;;;-146.64;100.00;118402.03;5006649;28;20021;-84
2022/04/05 06:57:37;;;;;;;18.77;6.40;;;;;;;-146.64;100.00;118402.03;4991774;28;20482;-85
2022/04/05 07:00:07;;;;;;;21.48;5.85;;;;;;;-146.64;100.00;118402.03;5012170;28;20065;-85
2022/04/05 07:02:33;;;;;;;17.17;5.72;;;;;;;-146.64;100.00;118402.03;5006144;28;20044;-84
2022/04/05 07:04:59;;;;;;;14.90;6.57;;;;;;;-146.64;100.00;118402.03;4997595;28;20021;-85
2022/04/05 07:07:25;;;;;;;14.15;6.07;;;;;;;-146.64;100.00;118402.03;4998988;28;20026;-85
2022/04/05 07:09:51;;;;;;;12.47;6.20;;;;;;;-146.64;100.00;118402.03;4994501;28;20034;-85
2022/04/05 07:12:17;;;;;;;15.27;6.45;;;;;;;-146.64;100.00;118402.03;4994818;28;20360;-85
2022/04/05 07:14:42;;;;;;;14.13;5.60;;;;;;;-146.64;100.00;118402.03;4995156;28;20037;-85
2022/04/05 07:17:08;;;;;;;20.33;7.03;;;;;;;-146.64;100.00;118402.03;5016688;28;20045;-84
2022/04/05 07:19:34;;;;;;;20.27;6.67;;;;;;;-146.64;100.00;118402.03;5000823;28;20065;-84
2022/04/05 07:22:00;;;;;;;19.35;6.43;;;;;;;-146.64;100.00;118402.03;5001218;28;20030;-85
2022/04/05 07:24:26;;;;;;;11.27;5.60;;;;;;;-146.64;100.00;118402.03;5029698;28;20104;-84
2022/04/05 07:26:52;;;;;;;14.55;5.50;;;;;;;-146.64;100.00;118402.03;5000197;28;20305;-84
2022/04/05 07:29:18;;;;;;;18.17;5.70;;;;;;;-146.64;100.00;118402.03;4997731;28;20105;-85
2022/04/05 07:31:44;;;;;;;21.60;7.45;;;;;;;-146.64;100.00;118402.03;4995354;28;20127;-85
2022/04/05 07:34:10;;;;;;;;;;;;;;;-146.64;100.00;118402.03;5012306;28;20339;-85
2022/04/05 07:36:35;;;;;;;15.20;5.45;;;;;;;-146.64;100.00;118402.03;5016255;28;19924;-85
2022/04/05 07:39:00;;;;;;;17.77;6.07;;;;;;;-146.64;100.00;118402.03;5015664;28;20109;-85
2022/04/05 07:41:26;;;;;;;17.37;5.87;;;;;;;-146.64;100.00;118402.03;4996547;28;20429;-86
2022/04/05 07:43:51;;;;;;;22.17;6.22;;;;;;;-146.64;100.00;118402.03;5000256;28;20087;-85
2022/04/05 07:46:17;;;;;;;20.93;5.53;;;;;;;-146.64;100.00;118402.03;4999623;28;20076;-85
2022/04/05 07:48:43;;;;;;;18.35;5.15;;;;;;;-146.64;100.00;118402.03;4997339;28;20065;-85
2022/04/05 07:51:08;;;;;;;20.80;5.27;;;;;;;-146.64;100.00;118402.03;4998498;28;20033;-85
2022/04/05 07:53:34;;;;;;;13.23;5.90;;;;;;;-146.64;100.00;118402.03;4998460;28;20040;-85
2022/04/05 07:56:04;;;;;;;11.30;4.75;;;;;;;-146.64;100.00;118402.03;5017234;28;20034;-85
2022/04/05 07:58:29;;;;;;;16.02;5.70;;;;;;;-146.64;100.00;118402.03;5010629;28;20465;-85
2022/04/05 08:00:55;;;;;;;17.13;5.77;;;;;;;-146.64;100.00;118402.03;5016922;28;20028;-85
2022/04/05 08:03:22;;;;;;;16.35;4.82;;;;;;;-146.64;100.00;118402.03;5012264;28;20028;-85
2022/04/05 08:05:48;;;;;;;12.57;4.78;;;;;;;-146.64;100.00;118402.03;5016938;28;20490;-85
2022/04/05 08:08:14;;;;;;;16.02;4.53;;;;;;;-146.64;100.00;118402.03;5001550;28;20103;-85
2022/04/05 08:10:39;;;;;;;16.87;4.80;;;;;;;-146.64;100.00;118402.03;5000777;28;20086;-84
2022/04/05 08:13:06;;;;;;;8.38;4.75;;;;;;;-146.64;100.00;118402.03;4992474;28;20205;-85
2022/04/05 08:15:31;;;;;;;12.50;4.72;;;;;;;-146.64;100.00;118402.03;5000898;28;20358;-85
2022/04/05 08:17:57;;;;;;;24.92;5.57;;;;;;;-146.64;100.00;118402.03;5015046;28;20133;-85
2022/04/05 08:20:23;;;;;;;10.63;4.65;;;;;;;-146.64;100.00;118402.03;5016938;28;20050;-85
2022/04/05 08:22:48;;;;;;;14.27;4.70;;;;;;;-146.64;100.00;118402.03;4999668;28;20022;-85
2022/04/05 08:25:17;;;;;;;10.88;4.13;;;;;;;-146.64;100.00;118402.03;5014429;28;20104;-85
2022/04/05 08:27:45;;;;;;;12.68;4.60;;;;;;;-146.64;100.00;118402.03;4997201;28;20065;-85
2022/04/05 08:30:15;;;;;;;13.73;4.43;;;;;;;-146.64;100.00;118402.03;5013346;28;20026;-84
2022/04/05 08:32:42;;;;;;;13.23;4.22;;;;;;;-146.64;100.00;118402.03;4998207;28;20574;-85
2022/04/05 08:35:12;;;;;;;14.15;4.90;;;;;;;-146.64;100.00;118402.03;4998748;28;20102;-86
2022/04/05 08:37:38;;;;;;;16.20;4.35;;;;;;;-146.64;100.00;118402.03;4978747;28;20100;-83
2022/04/05 08:40:06;;;;;;;14.57;4.68;;;;;;;-146.64;100.00;118402.03;5001736;28;20080;-84
2022/04/05 08:42:38;;;;;;;11.50;4.80;;;;;;;-146.64;100.00;118402.03;5001014;28;20034;-84
2022/04/05 08:45:07;;;;;;;8.93;4.20;;;;;;;-146.64;100.00;118402.03;4996824;28;20026;-85
2022/04/05 08:47:36;;;;;;;11.52;4.07;;;;;;;-146.64;100.00;118402.03;5011532;28;20045;-85
2022/04/05 08:50:05;;;;;;;15.27;4.35;;;;;;;-146.64;100.00;118402.03;5016525;28;20037;-84
2022/04/05 08:52:31;;;;;;;12.25;4.78;;;;;;;-146.64;100.00;118402.03;5012003;28;20497;-84
2022/04/05 08:54:56;;;;;;;9.60;4.30;;;;;;;-146.64;100.00;118402.03;5015406;28;20026;-84
2022/04/05 08:57:22;;;;;;;8.15;4.75;;;;;;;-146.64;100.00;118402.03;5018294;28;20026;-84
2022/04/05 08:59:49;;;;;;;8.65;4.45;;;;;;;-146.64;100.00;118402.03;4997929;28;20038;-84
2022/04/05 09:02:18;;;;;;;;;;;;;;;-146.64;100.00;118402.03;5002273;28;20045;-85
2022/04/05 09:04:45;;;;;;;12.52;4.40;;;;;;;-146.64;100.00;118402.03;4998027;28;19921;-85
2022/04/05 09:07:20;;;;;;;;;;;;;;;-146.64;100.00;118402.03;5030405;28;20044;-85
2022/04/05 09:10:06;;;;;;;13.82;4.72;;;;;;;-146.64;100.00;118402.03;5014827;28;20357;-84
2022/04/05 09:12:46;;;;;;;10.80;4.68;;;;;;;-146.64;100.00;118402.03;5013827;28;20044;-84
2022/04/05 09:15:34;;;;;;;22.83;5.38;;;;;;;-146.64;100.00;118402.03;5014867;28;20053;-83
2022/04/05 09:18:00;;;;;;;10.80;4.38;;;;;;;-146.64;100.00;118402.03;5026237;28;20578;-85
2022/04/05 09:20:26;;;;;;;12.03;4.27;;;;;;;-146.64;100.00;118402.03;4997156;28;20034;-84
2022/04/05 09:22:56;;;;;;;16.73;4.88;;;;;;;-146.64;100.00;118402.03;5015441;28;20026;-84
2022/04/05 09:25:23;;;;;;;13.18;4.50;;;;;;;-146.64;100.00;118402.03;4995497;28;20034;-84
2022/04/05 09:27:54;;;;;;;9.45;3.92;;;;;;;-146.64;100.00;118402.03;5026125;28;20042;-84
2022/04/05 09:30:22;;;;;;;10.57;4.80;;;;;;;-146.64;100.00;118402.03;5010533;28;20025;-84
2022/04/05 09:32:48;;;;;;;8.13;4.47;;;;;;;-146.64;100.00;118402.03;4996007;28;20037;-83
2022/04/05 09:35:19;;;;;;;15.07;4.97;;;;;;;-146.64;100.00;118402.03;5025731;28;20018;-83
2022/04/05 09:37:45;;;;;;;8.68;3.92;;;;;;;-146.64;100.00;118402.03;4999195;28;20089;-83
2022/04/05 09:40:23;;;;;;;8.55;3.88;;;;;;;-146.64;100.00;118402.03;5015122;28;20030;-83
2022/04/05 09:43:00;;;;;;;16.10;4.88;;;;;;;-146.64;100.00;118402.03;5016850;28;20048;-84
2022/04/05 09:45:50;;;;;;;9.48;4.55;;;;;;;-146.64;100.00;118402.03;5013376;28;20041;-83
2022/04/05 09:48:18;;;;;;;12.68;4.13;;;;;;;-146.64;100.00;118402.03;5011794;28;20378;-83
2022/04/05 09:51:09;;;;;;;9.75;4.00;;;;;;;-146.64;100.00;118402.03;4995935;28;20113;-83
2022/04/05 09:53:40;;;;;;;9.70;3.90;;;;;;;-146.64;100.00;118402.03;5025961;28;20033;-84
2022/04/05 09:56:09;;;;;;;8.43;4.03;;;;;;;-146.64;100.00;118402.03;5013183;28;20026;-83
2022/04/05 09:58:35;;;;;;;15.50;5.53;;;;;;;-146.64;100.00;118402.03;5012680;28;20034;-84
2022/04/05 10:01:08;;;;;;;12.52;4.18;;;;;;;-146.64;100.00;118402.03;4998875;28;20034;-83
2022/04/05 10:03:43;;;;;;;18.40;5.22;;;;;;;-146.64;100.00;118402.03;5012914;28;20073;-83
2022/04/05 10:06:09;;;;;;;8.65;4.22;;;;;;;-146.64;100.00;118402.03;5029690;28;20038;-84
2022/04/05 10:08:37;;;;;;;10.77;4.90;;;;;;;-146.64;100.00;118402.03;5014288;28;20094;-83
2022/04/05 10:11:03;;;;;;;10.10;3.78;;;;;;;-146.64;100.00;118402.03;5013148;28;20061;-83
2022/04/05 10:13:29;;;;;;;18.43;4.73;;;;;;;-146.64;100.00;118402.03;4997248;28;20058;-84
2022/04/05 10:15:55;;;;;;;12.73;4.70;;;;;;;-146.64;100.00;118402.03;4994190;28;20146;-83
2022/04/05 10:18:21;;;;;;;13.35;4.85;;;;;;;-146.64;100.00;118402.03;5000536;28;20022;-84
2022/04/05 10:20:51;;;;;;;12.63;4.90;;;;;;;-146.64;100.00;118402.03;5008878;28;20363;-84
2022/04/05 10:23:22;;;;;;;14.23;5.30;;;;;;;-146.64;100.00;118402.03;4997729;28;20025;-84
2022/04/05 10:25:50;;;;;;;9.43;4.80;;;;;;;-146.64;100.00;118402.03;5010767;28;20026;-84
2022/04/05 10:28:17;;;;;;;10.07;4.25;;;;;;;-146.64;100.00;118402.03;4997499;28;20053;-85
2022/04/05 10:30:44;;;;;;;13.67;5.50;;;;;;;-146.64;100.00;118402.03;5012085;28;20030;-84
2022/04/05 10:33:21;;;;;;;12.13;4.68;;;;;;;-146.64;100.00;118402.03;5019771;28;20033;-84
2022/04/05 10:35:55;;;;;;;9.93;4.70;;;;;;;-146.64;100.00;118402.03;5024263;28;20045;-84
2022/04/05 10:38:21;;;;;;;7.60;5.03;;;;;;;-146.64;100.00;118402.03;4997339;28;20681;-83
2022/04/05 10:41:19;;;;;;;8.13;4.78;;;;;;;-146.64;100.00;118402.03;5000564;28;20129;-83
2022/04/05 10:43:48;;;;;;;14.10;5.30;;;;;;;-146.64;100.00;118402.03;5011371;28;20053;-84
2022/04/05 10:46:18;;;;;;;13.25;4.90;;;;;;;-146.64;100.00;118402.03;4975675;28;20029;-84
2022/04/05 10:48:56;;;;;;;16.65;5.85;;;;;;;-146.64;100.00;118402.03;5013432;28;20156;-83
2022/04/05 10:51:31;;;;;;;12.82;5.72;;;;;;;-146.64;100.00;118402.03;5000426;28;20026;-84
2022/04/05 10:54:18;;;;;;;8.73;5.03;;;;;;;-146.64;100.00;118402.03;4998387;28;20112;-84